createdAt,value
2023-01-30T00:01:10.101Z,97746.41
2023-01-30T00:03:36.404Z,97741.28
2023-01-30T00:06:02.693Z,97747.22
2023-01-30T00:08:29.054Z,97736.53
2023-01-30T00:10:55.306Z,97732.09
2023-01-30T00:13:21.567Z,97744.13
2023-01-30T00:15:47.885Z,97738.69
2023-01-30T00:18:14.151Z,97732.63
2023-01-30T00:20:40.429Z,97728.34
2023-01-30T00:23:06.701Z,97746.28
2023-01-30T00:25:33.103Z,97729.81
2023-01-30T00:27:59.428Z,97725.06
2023-01-30T00:30:25.738Z,97731.81
2023-01-30T00:32:52.320Z,97732.63
2023-01-30T00:35:18.602Z,97732.63
2023-01-30T00:37:45.075Z,97729.03
2023-01-30T00:40:11.345Z,97732.47
2023-01-30T00:42:37.620Z,97727.06
2023-01-30T00:45:03.869Z,97722.16
2023-01-30T00:47:30.129Z,97723.44
2023-01-30T00:49:56.382Z,97728.88
2023-01-30T00:52:22.697Z,97733.44
2023-01-30T00:54:48.989Z,97752.16
2023-01-30T00:57:15.258Z,97746.28
2023-01-30T00:59:41.523Z,97749.56
2023-01-30T01:02:07.854Z,97747.56
2023-01-30T01:04:34.145Z,97738.84
2023-01-30T01:07:00.413Z,97741.81
2023-01-30T01:09:26.671Z,97739.53
2023-01-30T01:11:52.918Z,97724.25
2023-01-30T01:14:19.260Z,97724.09
2023-01-30T01:16:45.696Z,97731.50
2023-01-30T01:19:12.319Z,97728.72
2023-01-30T01:21:38.628Z,97723.13
2023-01-30T01:24:04.898Z,97731.53
2023-01-30T01:26:31.220Z,97726.75
2023-01-30T01:28:57.601Z,97722.47
2023-01-30T01:31:24.090Z,97712.59
2023-01-30T01:33:50.531Z,97714.09
2023-01-30T01:36:42.524Z,97711.75
2023-01-30T01:39:03.054Z,97708.47
2023-01-30T01:41:29.310Z,97713.25
2023-01-30T01:43:55.568Z,97713.41
2023-01-30T01:46:21.839Z,97715.56
2023-01-30T01:48:48.123Z,97710.47
2023-01-30T01:51:14.378Z,97707.34
2023-01-30T01:53:40.641Z,97705.22
2023-01-30T01:56:06.933Z,97713.44
2023-01-30T01:58:33.188Z,97704.41
2023-01-30T02:00:59.532Z,97702.59
2023-01-30T02:03:25.844Z,97707.69
2023-01-30T02:05:52.110Z,97705.56
2023-01-30T02:08:18.382Z,97717.56
2023-01-30T02:10:44.651Z,97725.28
2023-01-30T02:13:10.939Z,97718.22
2023-01-30T02:15:37.195Z,97717.25
2023-01-30T02:18:03.452Z,97711.16
2023-01-30T02:20:29.702Z,97708.34
2023-01-30T02:22:55.984Z,97706.22
2023-01-30T02:25:22.259Z,97711.78
2023-01-30T02:27:48.529Z,97711.31
2023-01-30T02:30:14.794Z,97715.44
2023-01-30T02:32:41.084Z,97715.09
2023-01-30T02:35:07.336Z,97716.06
2023-01-30T02:37:33.626Z,97711.63
2023-01-30T02:39:59.899Z,97722.00
2023-01-30T02:42:26.168Z,97724.31
2023-01-30T02:44:52.432Z,97712.47
2023-01-30T02:47:18.720Z,97719.72
2023-01-30T02:49:44.979Z,97719.22
2023-01-30T02:52:11.221Z,97724.00
2023-01-30T02:54:37.501Z,97737.16
2023-01-30T02:57:03.790Z,97730.91
2023-01-30T02:59:30.042Z,97729.72
2023-01-30T03:01:56.293Z,97722.50
2023-01-30T03:04:22.549Z,97724.00
2023-01-30T03:06:48.795Z,97732.22
2023-01-30T03:09:15.056Z,97737.00
2023-01-30T03:11:41.320Z,97763.16
2023-01-30T03:14:07.752Z,97777.63
2023-01-30T03:16:34.017Z,97780.41
2023-01-30T03:19:00.285Z,97789.78
2023-01-30T03:21:26.551Z,97778.25
2023-01-30T03:23:52.827Z,97763.81
2023-01-30T03:26:19.109Z,97758.22
2023-01-30T03:28:45.412Z,97769.25
2023-01-30T03:31:11.777Z,97781.09
2023-01-30T03:33:38.093Z,97785.88
2023-01-30T03:36:04.340Z,97785.56
2023-01-30T03:38:30.716Z,97773.22
2023-01-30T03:40:56.993Z,97782.44
2023-01-30T03:43:23.253Z,97789.34
2023-01-30T03:45:49.527Z,97788.22
2023-01-30T03:48:15.822Z,97794.13
2023-01-30T03:50:42.097Z,97799.56
2023-01-30T03:53:08.396Z,97808.28
2023-01-30T03:55:34.662Z,97803.66
2023-01-30T03:58:00.955Z,97801.03
2023-01-30T04:00:27.247Z,97801.38
2023-01-30T04:02:53.524Z,97788.38
2023-01-30T04:05:20.036Z,97788.53
2023-01-30T04:07:46.463Z,97776.88
2023-01-30T04:10:12.747Z,97783.63
2023-01-30T04:12:39.040Z,97780.66
2023-01-30T04:15:05.316Z,97783.13
2023-01-30T04:17:31.565Z,97773.41
2023-01-30T04:19:57.903Z,97775.72
2023-01-30T04:22:24.181Z,97782.13
2023-01-30T04:24:50.453Z,97776.69
2023-01-30T04:27:16.720Z,97772.91
2023-01-30T04:29:43.000Z,97769.78
2023-01-30T04:32:09.268Z,97757.59
2023-01-30T04:34:35.541Z,97753.81
2023-01-30T04:37:01.804Z,97776.19
2023-01-30T04:39:28.106Z,97762.53
2023-01-30T04:41:54.363Z,97755.31
2023-01-30T04:44:20.650Z,97765.84
2023-01-30T04:46:47.023Z,97770.75
2023-01-30T04:49:13.287Z,97766.47
2023-01-30T04:51:39.566Z,97762.19
2023-01-30T04:54:05.935Z,97770.72
2023-01-30T04:56:32.221Z,97783.72
2023-01-30T04:58:58.486Z,97773.03
2023-01-30T05:01:24.743Z,97767.56
2023-01-30T05:03:51.042Z,97772.34
2023-01-30T05:06:17.311Z,97766.59
2023-01-30T05:08:46.594Z,97749.63
2023-01-30T05:11:13.095Z,97736.81
2023-01-30T05:13:39.349Z,97727.63
2023-01-30T05:16:05.612Z,97734.38
2023-01-30T05:18:31.900Z,97730.59
2023-01-30T05:20:58.424Z,97735.19
2023-01-30T05:23:24.701Z,97738.00
2023-01-30T05:25:50.959Z,97741.13
2023-01-30T05:28:17.216Z,97729.59
2023-01-30T05:30:44.599Z,97728.47
2023-01-30T05:33:12.519Z,97723.84
2023-01-30T05:35:38.774Z,97724.50
2023-01-30T05:38:05.033Z,97729.63
2023-01-30T05:40:31.320Z,97722.53
2023-01-30T05:42:57.584Z,97713.81
2023-01-30T05:45:23.860Z,97715.47
2023-01-30T05:47:50.148Z,97713.16
2023-01-30T05:50:16.443Z,97713.00
2023-01-30T05:52:42.708Z,97723.03
2023-01-30T05:55:08.986Z,97718.09
2023-01-30T05:57:35.272Z,97703.78
2023-01-30T06:00:01.599Z,97704.13
2023-01-30T06:02:27.912Z,97704.13
2023-01-30T06:04:54.202Z,97723.06
2023-01-30T06:07:20.497Z,97729.97
2023-01-30T06:09:46.761Z,97732.28
2023-01-30T06:12:13.115Z,97717.44
2023-01-30T06:14:39.477Z,97729.97
2023-01-30T06:17:05.804Z,97732.94
2023-01-30T06:19:32.091Z,97736.56
2023-01-30T06:21:58.367Z,97728.47
2023-01-30T06:24:24.698Z,97725.53
2023-01-30T06:26:51.025Z,97729.47
2023-01-30T06:29:17.337Z,97727.34
2023-01-30T06:31:43.643Z,97724.88
2023-01-30T06:34:09.941Z,97734.56
2023-01-30T06:36:36.280Z,97752.69
2023-01-30T06:39:02.556Z,97740.00
2023-01-30T06:41:28.830Z,97737.72
2023-01-30T06:43:55.097Z,97734.56
2023-01-30T06:46:21.428Z,97738.19
2023-01-30T06:48:47.731Z,97736.22
2023-01-30T06:51:14.018Z,97741.16
2023-01-30T06:53:40.285Z,97735.56
2023-01-30T06:56:06.532Z,97728.97
2023-01-30T06:58:32.859Z,97733.59
2023-01-30T07:00:59.113Z,97731.59
2023-01-30T07:03:25.403Z,97718.25
2023-01-30T07:05:51.732Z,97722.72
2023-01-30T07:08:18.007Z,97719.09
2023-01-30T07:10:44.268Z,97717.13
2023-01-30T07:13:10.574Z,97713.31
2023-01-30T07:15:36.843Z,97710.53
2023-01-30T07:18:03.146Z,97710.53
2023-01-30T07:20:29.490Z,97716.63
2023-01-30T07:22:55.851Z,97701.31
2023-01-30T07:25:22.143Z,97723.84
2023-01-30T07:27:48.422Z,97758.44
2023-01-30T07:30:14.718Z,97769.97
2023-01-30T07:32:40.991Z,97778.22
2023-01-30T07:35:07.269Z,97773.44
2023-01-30T07:37:33.559Z,97769.81
2023-01-30T07:39:59.813Z,97778.88
2023-01-30T07:42:26.141Z,97776.72
2023-01-30T07:44:52.396Z,97779.84
2023-01-30T07:47:18.707Z,97784.13
2023-01-30T07:49:45.068Z,97784.63
2023-01-30T07:52:11.383Z,97797.31
2023-01-30T07:54:37.643Z,97803.25
2023-01-30T07:57:03.914Z,97805.72
2023-01-30T07:59:30.184Z,97811.97
2023-01-30T08:01:56.461Z,97808.34
2023-01-30T08:04:22.732Z,97810.47
2023-01-30T08:06:49.011Z,97810.16
2023-01-30T08:09:15.270Z,97809.50
2023-01-30T08:11:41.560Z,97795.00
2023-01-30T08:14:07.853Z,97801.59
2023-01-30T08:16:34.196Z,97805.38
2023-01-30T08:19:00.534Z,97797.97
2023-01-30T08:21:26.823Z,97809.00
2023-01-30T08:23:53.084Z,97815.59
2023-01-30T08:26:19.395Z,97805.72
2023-01-30T08:28:45.724Z,97795.66
2023-01-30T08:31:12.093Z,97796.66
2023-01-30T08:33:38.422Z,97795.50
2023-01-30T08:36:04.688Z,97803.25
2023-01-30T08:38:30.947Z,97805.53
2023-01-30T08:40:57.236Z,97808.84
2023-01-30T08:43:23.513Z,97808.50
2023-01-30T08:45:49.801Z,97818.72
2023-01-30T08:48:16.128Z,97824.00
2023-01-30T08:50:42.399Z,97821.19
2023-01-30T08:53:08.661Z,97816.56
2023-01-30T08:55:34.971Z,97822.84
2023-01-30T08:58:01.221Z,97823.31
2023-01-30T09:00:27.488Z,97821.50
2023-01-30T09:02:53.833Z,97814.75
2023-01-30T09:05:20.112Z,97820.50
2023-01-30T09:07:46.385Z,97811.47
2023-01-30T09:10:12.674Z,97812.13
2023-01-30T09:12:38.938Z,97820.69
2023-01-30T09:15:05.220Z,97830.53
2023-01-30T09:17:31.489Z,97838.13
2023-01-30T09:19:57.760Z,97832.50
2023-01-30T09:22:24.019Z,97832.84
2023-01-30T09:24:50.287Z,97827.22
2023-01-30T09:27:16.570Z,97837.44
2023-01-30T09:29:44.419Z,97836.44
2023-01-30T09:32:11.684Z,97828.38
2023-01-30T09:34:37.932Z,97832.66
2023-01-30T09:37:05.097Z,97829.69
2023-01-30T09:39:31.534Z,97831.16
2023-01-30T09:41:57.805Z,97832.50
2023-01-30T09:44:24.086Z,97834.97
2023-01-30T09:46:50.367Z,97845.50
2023-01-30T09:49:16.635Z,97853.94
2023-01-30T09:51:42.963Z,97852.59
2023-01-30T09:54:09.248Z,97847.81
2023-01-30T09:56:35.516Z,97858.53
2023-01-30T09:59:01.815Z,97843.69
2023-01-30T10:01:28.093Z,97837.91
2023-01-30T10:03:54.392Z,97848.78
2023-01-30T10:06:20.665Z,97847.44
2023-01-30T10:08:46.940Z,97849.06
2023-01-30T10:11:13.211Z,97843.50
2023-01-30T10:13:39.505Z,97841.00
2023-01-30T10:16:05.835Z,97851.72
2023-01-30T10:18:32.246Z,97863.44
2023-01-30T10:20:58.552Z,97875.78
2023-01-30T10:23:24.830Z,97869.34
2023-01-30T10:25:51.094Z,97860.94
2023-01-30T10:28:17.373Z,97881.38
2023-01-30T10:30:43.681Z,97879.06
2023-01-30T10:33:09.975Z,97876.59
2023-01-30T10:35:36.249Z,97881.03
2023-01-30T10:38:02.527Z,97877.09
2023-01-30T10:40:28.788Z,97873.47
2023-01-30T10:42:55.067Z,97875.75
2023-01-30T10:45:22.440Z,97863.53
2023-01-30T10:47:48.710Z,97858.72
2023-01-30T10:50:14.994Z,97864.31
2023-01-30T10:52:41.319Z,97861.16
2023-01-30T10:55:07.592Z,97878.63
2023-01-30T10:57:33.874Z,97877.19
2023-01-30T11:00:00.151Z,97884.09
2023-01-30T11:02:26.492Z,97870.56
2023-01-30T11:04:52.797Z,97877.81
2023-01-30T11:07:19.082Z,97887.53
2023-01-30T11:09:45.334Z,97881.25
2023-01-30T11:12:11.616Z,97887.47
2023-01-30T11:14:37.875Z,97877.19
2023-01-30T11:17:04.152Z,97879.00
2023-01-30T11:19:30.529Z,97877.13
2023-01-30T11:21:56.803Z,97867.78
2023-01-30T11:24:23.071Z,97853.03
2023-01-30T11:26:49.460Z,97839.47
2023-01-30T11:29:15.784Z,97816.22
2023-01-30T11:31:42.295Z,97821.63
2023-01-30T11:34:08.633Z,97822.41
2023-01-30T11:36:34.898Z,97819.88
2023-01-30T11:39:01.182Z,97815.56
2023-01-30T11:41:27.480Z,97814.19
2023-01-30T11:43:53.752Z,97820.44
2023-01-30T11:46:20.037Z,97827.72
2023-01-30T11:49:03.646Z,97828.78
2023-01-30T11:51:32.620Z,97823.06
2023-01-30T11:53:58.943Z,97812.72
2023-01-30T11:56:25.188Z,97810.28
2023-01-30T11:58:51.536Z,97814.03
2023-01-30T12:01:17.847Z,97809.31
2023-01-30T12:03:44.106Z,97793.00
2023-01-30T12:06:10.405Z,97774.41
2023-01-30T12:08:43.805Z,97778.06
2023-01-30T12:11:10.144Z,97776.84
2023-01-30T12:13:36.432Z,97766.47
2023-01-30T12:16:02.746Z,97760.69
2023-01-30T12:18:29.060Z,97772.13
2023-01-30T12:20:55.365Z,97766.00
2023-01-30T12:23:21.630Z,97769.72
2023-01-30T12:25:47.897Z,97767.34
2023-01-30T12:28:14.273Z,97759.41
2023-01-30T12:30:40.527Z,97755.59
2023-01-30T12:33:06.813Z,97751.75
2023-01-30T12:35:33.119Z,97746.56
2023-01-30T12:37:59.400Z,97752.84
2023-01-30T12:40:25.693Z,97754.66
2023-01-30T12:42:51.970Z,97759.03
2023-01-30T12:45:18.447Z,97747.78
2023-01-30T12:47:44.877Z,97749.31
2023-01-30T12:50:11.168Z,97752.16
2023-01-30T12:52:37.434Z,97733.81
2023-01-30T12:55:03.799Z,97721.06
2023-01-30T12:57:30.089Z,97710.81
2023-01-30T12:59:56.371Z,97708.03
2023-01-30T13:02:23.912Z,97701.97
2023-01-30T13:04:56.722Z,97701.84
2023-01-30T13:07:28.567Z,97705.69
2023-01-30T13:09:54.832Z,97706.91
2023-01-30T13:12:21.119Z,97697.41
2023-01-30T13:14:47.388Z,97688.66
2023-01-30T13:17:13.663Z,97692.94
2023-01-30T13:19:41.493Z,97690.38
2023-01-30T13:22:07.967Z,97686.38
2023-01-30T13:24:34.247Z,97697.56
2023-01-30T13:27:00.513Z,97700.03
2023-01-30T13:29:26.784Z,97703.53
2023-01-30T13:31:53.237Z,97693.50
2023-01-30T13:34:19.639Z,97690.28
2023-01-30T13:36:45.895Z,97693.22
2023-01-30T13:39:12.229Z,97701.81
2023-01-30T13:41:38.509Z,97691.44
2023-01-30T13:44:04.824Z,97693.13
2023-01-30T13:46:31.300Z,97692.97
2023-01-30T13:48:57.605Z,97684.88
2023-01-30T13:51:23.892Z,97686.78
2023-01-30T13:53:50.159Z,97687.63
2023-01-30T13:56:39.843Z,97688.25
2023-01-30T13:59:02.661Z,97681.19
2023-01-30T14:01:28.936Z,97675.28
2023-01-30T14:03:55.193Z,97688.34
2023-01-30T14:06:21.463Z,97695.09
2023-01-30T14:08:47.735Z,97689.56
2023-01-30T14:11:14.063Z,97700.00
2023-01-30T14:13:40.364Z,97696.53
2023-01-30T14:16:06.709Z,97690.63
2023-01-30T14:18:33.007Z,97686.75
2023-01-30T14:20:59.265Z,97681.25
2023-01-30T14:23:25.546Z,97691.97
2023-01-30T14:25:51.820Z,97693.22
2023-01-30T14:28:18.104Z,97699.78
2023-01-30T14:30:44.458Z,97691.38
2023-01-30T14:33:10.752Z,97689.97
2023-01-30T14:35:37.017Z,97693.00
2023-01-30T14:38:03.321Z,97700.19
2023-01-30T14:40:29.705Z,97703.47
2023-01-30T14:42:55.975Z,97704.91
2023-01-30T14:45:22.250Z,97707.13
2023-01-30T14:47:50.931Z,97701.00
2023-01-30T14:50:18.273Z,97696.69
2023-01-30T14:52:45.826Z,97696.31
2023-01-30T14:55:12.109Z,97700.38
2023-01-30T14:57:38.383Z,97711.44
2023-01-30T15:00:16.098Z,97702.63
2023-01-30T15:02:44.421Z,97703.19
2023-01-30T15:05:10.805Z,97723.78
2023-01-30T15:07:37.084Z,97731.06
2023-01-30T15:10:03.357Z,97726.94
2023-01-30T15:12:29.649Z,97724.66
2023-01-30T15:14:56.019Z,97716.22
2023-01-30T15:17:22.270Z,97716.03
2023-01-30T15:19:48.526Z,97713.38
2023-01-30T15:22:14.821Z,97717.28
2023-01-30T15:24:41.121Z,97717.94
2023-01-30T15:27:07.410Z,97716.09
2023-01-30T15:29:33.707Z,97712.03
2023-01-30T15:32:00.132Z,97706.53
2023-01-30T15:34:26.483Z,97710.97
2023-01-30T15:36:52.804Z,97714.81
2023-01-30T15:39:19.061Z,97718.66
2023-01-30T15:41:45.337Z,97712.53
2023-01-30T15:44:11.595Z,97714.31
2023-01-30T15:46:37.868Z,97723.25
2023-01-30T15:49:04.199Z,97723.03
2023-01-30T15:51:30.477Z,97730.13
2023-01-30T15:53:56.790Z,97724.56
2023-01-30T15:56:23.098Z,97722.31
2023-01-30T15:58:49.363Z,97732.88
2023-01-30T16:01:15.662Z,97727.56
2023-01-30T16:03:41.953Z,97734.28
2023-01-30T16:06:08.225Z,97730.34
2023-01-30T16:08:34.499Z,97730.94
2023-01-30T16:11:00.820Z,97733.16
2023-01-30T16:13:27.138Z,97728.22
2023-01-30T16:15:53.511Z,97730.63
2023-01-30T16:18:19.821Z,97725.53
2023-01-30T16:20:59.006Z,97738.34
2023-01-30T16:23:27.400Z,97739.50
2023-01-30T16:25:53.716Z,97749.84
2023-01-30T16:28:19.968Z,97760.03
2023-01-30T16:30:46.310Z,97754.94
2023-01-30T16:33:12.618Z,97746.53
2023-01-30T16:35:38.932Z,97744.25
2023-01-30T16:38:05.191Z,97749.31
2023-01-30T16:40:31.451Z,97747.84
2023-01-30T16:43:06.468Z,97754.97
2023-01-30T16:45:32.840Z,97750.88
2023-01-30T16:47:59.132Z,97751.25
2023-01-30T16:50:25.392Z,97752.63
2023-01-30T16:52:51.962Z,97753.84
2023-01-30T16:55:18.265Z,97751.19
2023-01-30T16:57:44.554Z,97765.00
2023-01-30T17:00:10.836Z,97757.41
2023-01-30T17:02:37.125Z,97758.44
2023-01-30T17:05:03.446Z,97762.09
2023-01-30T17:07:29.709Z,97761.25
2023-01-30T17:09:55.957Z,97766.75
2023-01-30T17:12:22.310Z,97765.84
2023-01-30T17:14:48.579Z,97780.94
2023-01-30T17:17:14.857Z,97779.09
2023-01-30T17:19:41.121Z,97768.50
2023-01-30T17:22:07.380Z,97771.34
2023-01-30T17:24:33.651Z,97780.28
2023-01-30T17:26:59.934Z,97788.41
2023-01-30T17:29:41.554Z,97797.38
2023-01-30T17:32:08.731Z,97797.09
2023-01-30T17:34:35.081Z,97796.47
2023-01-30T17:37:01.352Z,97793.19
2023-01-30T17:39:27.616Z,97795.38
2023-01-30T17:41:53.939Z,97794.19
2023-01-30T17:44:20.208Z,97790.28
2023-01-30T17:46:46.504Z,97788.25
2023-01-30T17:49:12.762Z,97799.50
2023-01-30T17:51:39.068Z,97798.84
2023-01-30T17:54:05.461Z,97800.88
2023-01-30T17:56:31.733Z,97801.88
2023-01-30T17:58:57.996Z,97800.69
2023-01-30T18:01:24.394Z,97807.63
2023-01-30T18:03:50.756Z,97814.75
2023-01-30T18:06:17.040Z,97820.22
2023-01-30T18:08:43.306Z,97824.06
2023-01-30T18:11:09.595Z,97818.31
2023-01-30T18:13:36.539Z,97820.13
2023-01-30T18:16:02.877Z,97824.59
2023-01-30T18:18:29.165Z,97825.63
2023-01-30T18:20:55.435Z,97822.78
2023-01-30T18:23:21.701Z,97825.97
2023-01-30T18:25:47.978Z,97825.34
2023-01-30T18:28:14.261Z,97822.25
2023-01-30T18:30:40.558Z,97830.53
2023-01-30T18:33:06.842Z,97837.03
2023-01-30T18:35:33.111Z,97838.84
2023-01-30T18:38:02.635Z,97839.31
2023-01-30T18:40:29.243Z,97836.84
2023-01-30T18:42:55.497Z,97832.56
2023-01-30T18:45:21.764Z,97838.84
2023-01-30T18:47:48.027Z,97846.16
2023-01-30T18:50:14.390Z,97848.34
2023-01-30T18:52:40.663Z,97848.53
2023-01-30T18:55:06.949Z,97843.75
2023-01-30T18:57:33.257Z,97843.44
2023-01-30T18:59:59.600Z,97844.00
2023-01-30T19:02:25.953Z,97841.34
2023-01-30T19:04:52.223Z,97833.94
2023-01-30T19:07:18.508Z,97829.66
2023-01-30T19:09:44.780Z,97830.84
2023-01-30T19:12:11.101Z,97837.13
2023-01-30T19:14:37.378Z,97846.63
2023-01-30T19:17:03.697Z,97843.16
2023-01-30T19:19:30.004Z,97839.03
2023-01-30T19:21:56.362Z,97843.88
2023-01-30T19:24:22.681Z,97848.50
2023-01-30T19:26:48.995Z,97851.97
2023-01-30T19:29:15.325Z,97851.50
2023-01-30T19:31:41.771Z,97852.03
2023-01-30T19:34:08.070Z,97849.22
2023-01-30T19:36:34.344Z,97852.69
2023-01-30T19:39:00.661Z,97849.22
2023-01-30T19:41:26.988Z,97856.88
2023-01-30T19:43:53.311Z,97863.16
2023-01-30T19:46:19.691Z,97856.22
2023-01-30T19:48:46.028Z,97863.50
2023-01-30T19:51:12.315Z,97878.56
2023-01-30T19:53:38.577Z,97883.84
2023-01-30T19:56:05.179Z,97878.09
2023-01-30T19:58:31.496Z,97878.09
2023-01-30T20:00:57.766Z,97867.34
2023-01-30T20:03:24.066Z,97876.28
2023-01-30T20:05:50.458Z,97867.88
2023-01-30T20:08:31.722Z,97864.56
2023-01-30T20:10:58.801Z,97864.94
2023-01-30T20:13:25.128Z,97868.41
2023-01-30T20:15:51.449Z,97868.75
2023-01-30T20:18:17.714Z,97870.09
2023-01-30T20:20:44.206Z,97865.72
2023-01-30T20:23:10.473Z,97863.34
2023-01-30T20:25:36.754Z,97873.31
2023-01-30T20:28:03.034Z,97869.53
2023-01-30T20:30:29.341Z,97862.78
2023-01-30T20:32:55.657Z,97861.78
2023-01-30T20:35:21.958Z,97863.91
2023-01-30T20:37:48.245Z,97870.84
2023-01-30T20:40:14.498Z,97870.38
2023-01-30T20:42:40.765Z,97867.78
2023-01-30T20:45:07.042Z,97864.47
2023-01-30T20:47:33.356Z,97859.53
2023-01-30T20:49:59.684Z,97855.47
2023-01-30T20:52:26.125Z,97860.97
2023-01-30T20:54:52.424Z,97859.16
2023-01-30T20:57:18.915Z,97862.16
2023-01-30T20:59:45.239Z,97857.16
2023-01-30T21:02:11.527Z,97855.19
2023-01-30T21:04:38.305Z,97849.72
2023-01-30T21:07:05.037Z,97858.28
2023-01-30T21:09:31.329Z,97859.28
2023-01-30T21:11:57.598Z,97861.41
2023-01-30T21:14:26.312Z,97857.78
2023-01-30T21:16:52.945Z,97852.66
2023-01-30T21:19:19.271Z,97840.78
2023-01-30T21:21:47.591Z,97838.16
2023-01-30T21:24:14.400Z,97851.88
2023-01-30T21:26:40.777Z,97844.78
2023-01-30T21:29:07.089Z,97843.13
2023-01-30T21:31:33.455Z,97846.94
2023-01-30T21:33:59.768Z,97850.28
2023-01-30T21:36:26.091Z,97853.28
2023-01-30T21:38:52.468Z,97849.63
2023-01-30T21:41:18.748Z,97850.28
2023-01-30T21:43:45.011Z,97843.00
2023-01-30T21:46:11.293Z,97848.13
2023-01-30T21:48:37.850Z,97834.72
2023-01-30T21:51:04.152Z,97840.50
2023-01-30T21:53:30.440Z,97833.25
2023-01-30T21:55:56.938Z,97846.66
2023-01-30T21:58:23.184Z,97845.00
2023-01-30T22:00:49.444Z,97838.06
2023-01-30T22:03:15.741Z,97828.16
2023-01-30T22:05:42.013Z,97834.25
2023-01-30T22:08:08.294Z,97834.59
2023-01-30T22:10:34.584Z,97834.59
2023-01-30T22:13:00.863Z,97826.84
2023-01-30T22:15:27.137Z,97831.97
2023-01-30T22:17:53.489Z,97838.25
2023-01-30T22:20:19.804Z,97832.97
2023-01-30T22:22:46.094Z,97835.13
2023-01-30T22:25:12.377Z,97830.38
2023-01-30T22:27:38.655Z,97829.72
2023-01-30T22:30:04.946Z,97825.94
2023-01-30T22:32:31.229Z,97829.22
2023-01-30T22:34:57.514Z,97832.84
2023-01-30T22:37:23.789Z,97835.78
2023-01-30T22:39:50.392Z,97835.94
2023-01-30T22:42:16.714Z,97839.41
2023-01-30T22:44:46.053Z,97838.41
2023-01-30T22:47:12.336Z,97841.88
2023-01-30T22:49:38.655Z,97840.41
2023-01-30T22:52:04.922Z,97840.59
2023-01-30T22:54:31.191Z,97839.09
2023-01-30T22:56:57.456Z,97844.25
2023-01-30T22:59:23.747Z,97833.53
2023-01-30T23:01:50.036Z,97830.41
2023-01-30T23:04:16.310Z,97839.28
2023-01-30T23:06:42.584Z,97827.06
2023-01-30T23:09:08.863Z,97824.59
2023-01-30T23:11:35.693Z,97818.16
2023-01-30T23:14:02.006Z,97815.00
2023-01-30T23:16:28.321Z,97826.81
2023-01-30T23:18:54.608Z,97828.16
2023-01-30T23:21:20.885Z,97830.31
2023-01-30T23:23:47.152Z,97840.06
2023-01-30T23:26:13.455Z,97839.25
2023-01-30T23:28:40.260Z,97831.66
2023-01-30T23:31:06.581Z,97832.66
2023-01-30T23:33:32.855Z,97820.44
2023-01-30T23:35:59.135Z,97832.66
2023-01-30T23:38:25.384Z,97832.13
2023-01-30T23:40:51.718Z,97832.13
2023-01-30T23:43:17.982Z,97826.84
2023-01-30T23:45:44.994Z,97828.69
2023-01-30T23:48:11.359Z,97831.31
2023-01-30T23:50:37.697Z,97834.31
2023-01-30T23:53:03.986Z,97830.50
2023-01-30T23:55:32.488Z,97833.31
2023-01-30T23:57:59.684Z,97832.66
